sensor_id;sensor_type;location;lat;lon;timestamp;P1;durP1;ratioP1;P2;durP2;ratioP2
23768;SDS011;12064;50.890;5.424;2022-07-22T00:03:08;8.02;;;3.50;;
23768;SDS011;12064;50.890;5.424;2022-07-22T00:11:59;6.50;;;3.55;;
23768;SDS011;12064;50.890;5.424;2022-07-22T00:20:51;7.40;;;3.10;;
23768;SDS011;12064;50.890;5.424;2022-07-22T00:29:42;7.77;;;3.40;;
23768;SDS011;12064;50.890;5.424;2022-07-22T00:38:37;8.30;;;3.25;;
23768;SDS011;12064;50.890;5.424;2022-07-22T00:47:28;6.78;;;2.85;;
23768;SDS011;12064;50.890;5.424;2022-07-22T00:56:18;5.97;;;2.90;;
23768;SDS011;12064;50.890;5.424;2022-07-22T01:05:13;5.93;;;2.80;;
23768;SDS011;12064;50.890;5.424;2022-07-22T01:14:04;5.93;;;2.83;;
23768;SDS011;12064;50.890;5.424;2022-07-22T01:22:54;8.20;;;3.30;;
23768;SDS011;12064;50.890;5.424;2022-07-22T01:31:48;7.22;;;3.03;;
23768;SDS011;12064;50.890;5.424;2022-07-22T01:40:40;5.13;;;2.60;;
23768;SDS011;12064;50.890;5.424;2022-07-22T01:58:32;5.05;;;2.90;;
23768;SDS011;12064;50.890;5.424;2022-07-22T02:07:23;6.25;;;3.05;;
23768;SDS011;12064;50.890;5.424;2022-07-22T02:16:16;7.68;;;3.05;;
23768;SDS011;12064;50.890;5.424;2022-07-22T02:25:07;6.32;;;2.85;;
23768;SDS011;12064;50.890;5.424;2022-07-22T02:33:59;5.65;;;2.75;;
23768;SDS011;12064;50.890;5.424;2022-07-22T02:42:50;5.90;;;2.70;;
23768;SDS011;12064;50.890;5.424;2022-07-22T02:51:42;5.55;;;2.83;;
23768;SDS011;12064;50.890;5.424;2022-07-22T03:00:33;4.55;;;2.70;;
23768;SDS011;12064;50.890;5.424;2022-07-22T03:18:19;4.53;;;2.78;;
23768;SDS011;12064;50.890;5.424;2022-07-22T03:27:10;5.17;;;2.90;;
23768;SDS011;12064;50.890;5.424;2022-07-22T03:36:03;3.22;;;2.20;;
23768;SDS011;12064;50.890;5.424;2022-07-22T03:44:57;5.88;;;2.65;;
23768;SDS011;12064;50.890;5.424;2022-07-22T03:53:49;6.30;;;2.65;;
23768;SDS011;12064;50.890;5.424;2022-07-22T04:02:39;4.72;;;2.80;;
23768;SDS011;12064;50.890;5.424;2022-07-22T04:11:32;4.23;;;2.60;;
23768;SDS011;12064;50.890;5.424;2022-07-22T04:20:22;5.80;;;2.58;;
23768;SDS011;12064;50.890;5.424;2022-07-22T04:29:17;5.20;;;2.40;;
23768;SDS011;12064;50.890;5.424;2022-07-22T04:38:08;7.10;;;2.90;;
23768;SDS011;12064;50.890;5.424;2022-07-22T04:46:58;4.88;;;2.75;;
23768;SDS011;12064;50.890;5.424;2022-07-22T04:55:51;5.03;;;3.00;;
23768;SDS011;12064;50.890;5.424;2022-07-22T05:04:46;4.95;;;2.75;;
23768;SDS011;12064;50.890;5.424;2022-07-22T05:13:37;6.15;;;3.08;;
23768;SDS011;12064;50.890;5.424;2022-07-22T05:22:27;6.03;;;3.20;;
23768;SDS011;12064;50.890;5.424;2022-07-22T05:31:20;6.07;;;2.83;;
23768;SDS011;12064;50.890;5.424;2022-07-22T05:40:11;4.55;;;2.58;;
23768;SDS011;12064;50.890;5.424;2022-07-22T05:49:02;5.25;;;2.80;;
23768;SDS011;12064;50.890;5.424;2022-07-22T05:57:54;4.38;;;2.63;;
23768;SDS011;12064;50.890;5.424;2022-07-22T06:06:47;4.28;;;2.20;;
23768;SDS011;12064;50.890;5.424;2022-07-22T06:15:39;4.68;;;2.42;;
23768;SDS011;12064;50.890;5.424;2022-07-22T06:24:33;3.67;;;2.28;;
23768;SDS011;12064;50.890;5.424;2022-07-22T06:33:23;3.10;;;2.40;;
23768;SDS011;12064;50.890;5.424;2022-07-22T06:42:14;2.87;;;2.23;;
23768;SDS011;12064;50.890;5.424;2022-07-22T06:51:07;3.25;;;2.10;;
23768;SDS011;12064;50.890;5.424;2022-07-22T06:59:58;2.67;;;2.28;;
23768;SDS011;12064;50.890;5.424;2022-07-22T07:08:49;2.40;;;1.97;;
23768;SDS011;12064;50.890;5.424;2022-07-22T07:17:42;3.22;;;2.15;;
23768;SDS011;12064;50.890;5.424;2022-07-22T07:26:33;2.53;;;2.07;;
23768;SDS011;12064;50.890;5.424;2022-07-22T07:35:23;3.77;;;2.17;;
23768;SDS011;12064;50.890;5.424;2022-07-22T07:44:14;2.27;;;1.90;;
23768;SDS011;12064;50.890;5.424;2022-07-22T07:53:05;2.17;;;1.90;;
23768;SDS011;12064;50.890;5.424;2022-07-22T08:01:55;2.00;;;1.90;;
23768;SDS011;12064;50.890;5.424;2022-07-22T08:10:46;1.80;;;1.70;;
23768;SDS011;12064;50.890;5.424;2022-07-22T08:19:37;1.93;;;1.80;;
23768;SDS011;12064;50.890;5.424;2022-07-22T08:28:27;2.78;;;2.22;;
23768;SDS011;12064;50.890;5.424;2022-07-22T08:37:18;2.28;;;2.03;;
23768;SDS011;12064;50.890;5.424;2022-07-22T08:46:10;2.17;;;1.98;;
23768;SDS011;12064;50.890;5.424;2022-07-22T08:55:05;2.15;;;1.95;;
23768;SDS011;12064;50.890;5.424;2022-07-22T09:03:56;2.25;;;2.05;;
23768;SDS011;12064;50.890;5.424;2022-07-22T09:12:52;2.20;;;2.08;;
23768;SDS011;12064;50.890;5.424;2022-07-22T09:21:45;2.05;;;1.90;;
23768;SDS011;12064;50.890;5.424;2022-07-22T09:30:41;1.95;;;1.85;;
23768;SDS011;12064;50.890;5.424;2022-07-22T09:39:40;1.90;;;1.80;;
23768;SDS011;12064;50.890;5.424;2022-07-22T09:48:31;2.45;;;2.15;;
23768;SDS011;12064;50.890;5.424;2022-07-22T09:57:22;2.10;;;2.00;;
23768;SDS011;12064;50.890;5.424;2022-07-22T10:06:13;2.30;;;2.10;;
23768;SDS011;12064;50.890;5.424;2022-07-22T10:15:04;2.20;;;2.05;;
23768;SDS011;12064;50.890;5.424;2022-07-22T10:24:17;2.13;;;2.03;;
23768;SDS011;12064;50.890;5.424;2022-07-22T10:33:10;1.80;;;1.70;;
23768;SDS011;12064;50.890;5.424;2022-07-22T10:42:05;2.05;;;1.85;;
23768;SDS011;12064;50.890;5.424;2022-07-22T11:00:03;2.00;;;1.90;;
23768;SDS011;12064;50.890;5.424;2022-07-22T11:08:59;2.00;;;1.90;;
23768;SDS011;12064;50.890;5.424;2022-07-22T11:17:51;2.47;;;2.13;;
23768;SDS011;12064;50.890;5.424;2022-07-22T11:26:48;1.80;;;1.70;;
23768;SDS011;12064;50.890;5.424;2022-07-22T11:35:40;2.20;;;2.00;;
23768;SDS011;12064;50.890;5.424;2022-07-22T11:44:51;2.30;;;2.17;;
23768;SDS011;12064;50.890;5.424;2022-07-22T11:53:45;2.17;;;1.98;;
23768;SDS011;12064;50.890;5.424;2022-07-22T12:02:39;2.10;;;2.00;;
23768;SDS011;12064;50.890;5.424;2022-07-22T12:11:30;2.20;;;2.08;;
23768;SDS011;12064;50.890;5.424;2022-07-22T12:20:26;2.45;;;2.25;;
23768;SDS011;12064;50.890;5.424;2022-07-22T12:29:21;2.10;;;2.00;;
23768;SDS011;12064;50.890;5.424;2022-07-22T12:38:19;2.50;;;2.30;;
23768;SDS011;12064;50.890;5.424;2022-07-22T12:47:10;2.35;;;2.10;;
23768;SDS011;12064;50.890;5.424;2022-07-22T12:56:03;2.53;;;2.33;;
23768;SDS011;12064;50.890;5.424;2022-07-22T13:04:57;2.15;;;2.05;;
23768;SDS011;12064;50.890;5.424;2022-07-22T13:13:47;2.60;;;2.40;;
23768;SDS011;12064;50.890;5.424;2022-07-22T13:22:39;2.33;;;2.13;;
23768;SDS011;12064;50.890;5.424;2022-07-22T13:31:30;2.42;;;2.33;;
23768;SDS011;12064;50.890;5.424;2022-07-22T13:40:23;2.53;;;2.42;;
23768;SDS011;12064;50.890;5.424;2022-07-22T13:49:14;2.85;;;2.65;;
23768;SDS011;12064;50.890;5.424;2022-07-22T13:58:04;2.50;;;2.40;;
23768;SDS011;12064;50.890;5.424;2022-07-22T14:06:55;2.58;;;2.38;;
23768;SDS011;12064;50.890;5.424;2022-07-22T14:15:46;2.37;;;2.27;;
23768;SDS011;12064;50.890;5.424;2022-07-22T14:24:36;2.40;;;2.20;;
23768;SDS011;12064;50.890;5.424;2022-07-22T14:33:27;2.67;;;2.47;;
23768;SDS011;12064;50.890;5.424;2022-07-22T14:42:18;2.55;;;2.40;;
23768;SDS011;12064;50.890;5.424;2022-07-22T14:51:09;2.70;;;2.50;;
23768;SDS011;12064;50.890;5.424;2022-07-22T15:00:00;2.70;;;2.50;;
23768;SDS011;12064;50.890;5.424;2022-07-22T15:08:50;2.72;;;2.53;;
23768;SDS011;12064;50.890;5.424;2022-07-22T15:17:41;2.83;;;2.63;;
23768;SDS011;12064;50.890;5.424;2022-07-22T15:26:34;2.42;;;2.25;;
23768;SDS011;12064;50.890;5.424;2022-07-22T15:35:25;2.20;;;2.10;;
23768;SDS011;12064;50.890;5.424;2022-07-22T15:44:16;2.22;;;2.13;;
23768;SDS011;12064;50.890;5.424;2022-07-22T15:53:09;2.23;;;2.13;;
23768;SDS011;12064;50.890;5.424;2022-07-22T16:02:00;2.08;;;1.98;;
23768;SDS011;12064;50.890;5.424;2022-07-22T16:10:51;2.30;;;2.20;;
23768;SDS011;12064;50.890;5.424;2022-07-22T16:19:42;2.22;;;2.10;;
23768;SDS011;12064;50.890;5.424;2022-07-22T16:28:35;2.30;;;2.10;;
23768;SDS011;12064;50.890;5.424;2022-07-22T16:46:56;2.20;;;2.00;;
23768;SDS011;12064;50.890;5.424;2022-07-22T16:55:49;2.42;;;2.20;;
23768;SDS011;12064;50.890;5.424;2022-07-22T17:04:40;2.40;;;2.20;;
23768;SDS011;12064;50.890;5.424;2022-07-22T17:13:31;2.50;;;2.30;;
23768;SDS011;12064;50.890;5.424;2022-07-22T17:22:22;2.50;;;2.30;;
23768;SDS011;12064;50.890;5.424;2022-07-22T17:31:13;2.27;;;2.07;;
23768;SDS011;12064;50.890;5.424;2022-07-22T17:40:07;2.58;;;2.38;;
23768;SDS011;12064;50.890;5.424;2022-07-22T17:48:58;2.97;;;2.50;;
23768;SDS011;12064;50.890;5.424;2022-07-22T17:57:51;2.20;;;2.10;;
23768;SDS011;12064;50.890;5.424;2022-07-22T18:06:42;2.20;;;2.03;;
23768;SDS011;12064;50.890;5.424;2022-07-22T18:15:32;2.37;;;2.17;;
23768;SDS011;12064;50.890;5.424;2022-07-22T18:24:23;2.30;;;2.20;;
23768;SDS011;12064;50.890;5.424;2022-07-22T18:33:16;2.20;;;2.10;;
23768;SDS011;12064;50.890;5.424;2022-07-22T18:42:07;2.23;;;2.10;;
23768;SDS011;12064;50.890;5.424;2022-07-22T18:50:57;3.03;;;2.40;;
23768;SDS011;12064;50.890;5.424;2022-07-22T18:59:49;2.30;;;2.10;;
23768;SDS011;12064;50.890;5.424;2022-07-22T19:08:40;2.40;;;2.10;;
23768;SDS011;12064;50.890;5.424;2022-07-22T19:17:33;3.20;;;2.03;;
23768;SDS011;12064;50.890;5.424;2022-07-22T19:26:24;3.55;;;3.17;;
23768;SDS011;12064;50.890;5.424;2022-07-22T19:35:15;5.10;;;3.13;;
23768;SDS011;12064;50.890;5.424;2022-07-22T19:44:05;5.70;;;2.90;;
23768;SDS011;12064;50.890;5.424;2022-07-22T20:02:07;5.45;;;2.80;;
23768;SDS011;12064;50.890;5.424;2022-07-22T20:10:57;4.78;;;2.90;;
23768;SDS011;12064;50.890;5.424;2022-07-22T20:19:48;4.60;;;2.45;;
23768;SDS011;12064;50.890;5.424;2022-07-22T20:28:39;4.70;;;2.30;;
23768;SDS011;12064;50.890;5.424;2022-07-22T20:37:30;2.95;;;2.08;;
23768;SDS011;12064;50.890;5.424;2022-07-22T20:46:20;5.27;;;2.13;;
23768;SDS011;12064;50.890;5.424;2022-07-22T20:55:29;5.03;;;2.30;;
23768;SDS011;12064;50.890;5.424;2022-07-22T21:04:20;6.97;;;2.75;;
23768;SDS011;12064;50.890;5.424;2022-07-22T21:13:28;5.68;;;2.58;;
23768;SDS011;12064;50.890;5.424;2022-07-22T21:41:35;4.60;;;2.20;;
23768;SDS011;12064;50.890;5.424;2022-07-22T22:00:12;3.03;;;2.15;;
23768;SDS011;12064;50.890;5.424;2022-07-22T22:09:06;2.38;;;2.17;;
23768;SDS011;12064;50.890;5.424;2022-07-22T22:18:00;4.28;;;2.40;;
23768;SDS011;12064;50.890;5.424;2022-07-22T22:36:27;3.58;;;2.38;;
23768;SDS011;12064;50.890;5.424;2022-07-22T22:45:21;3.65;;;2.35;;
23768;SDS011;12064;50.890;5.424;2022-07-22T23:04:02;4.25;;;2.60;;
23768;SDS011;12064;50.890;5.424;2022-07-22T23:12:52;3.00;;;2.40;;
23768;SDS011;12064;50.890;5.424;2022-07-22T23:21:43;2.67;;;2.47;;
23768;SDS011;12064;50.890;5.424;2022-07-22T23:39:43;3.33;;;2.47;;
23768;SDS011;12064;50.890;5.424;2022-07-22T23:48:34;2.90;;;2.37;;
23768;SDS011;12064;50.890;5.424;2022-07-22T23:57:26;2.47;;;2.27;;
